createdAt,value
2023-02-11T00:00:07.386Z,102461.72
2023-02-11T00:03:10.518Z,102459.94
2023-02-11T00:06:13.210Z,102458.13
2023-02-11T00:09:17.148Z,102456.44
2023-02-11T00:12:19.764Z,102465.22
2023-02-11T00:15:22.648Z,102461.72
2023-02-11T00:18:25.354Z,102475.75
2023-02-11T00:21:28.568Z,102470.53
2023-02-11T00:24:32.600Z,102470.47
2023-02-11T00:27:35.216Z,102464.28
2023-02-11T00:30:38.009Z,102463.44
2023-02-11T00:33:40.707Z,102458.13
2023-02-11T00:36:43.532Z,102458.16
2023-02-11T00:39:47.501Z,102453.75
2023-02-11T00:42:50.082Z,102444.91
2023-02-11T00:45:52.999Z,102459.72
2023-02-11T00:48:57.657Z,102440.53
2023-02-11T00:52:00.261Z,102444.94
2023-02-11T00:55:04.339Z,102435.28
2023-02-11T00:58:06.967Z,102417.72
2023-02-11T01:01:09.610Z,102427.41
2023-02-11T01:04:12.215Z,102421.25
2023-02-11T01:07:14.830Z,102422.09
2023-02-11T01:10:18.910Z,102405.44
2023-02-11T01:13:21.489Z,102399.25
2023-02-11T01:16:24.254Z,102394.03
2023-02-11T01:19:26.910Z,102384.38
2023-02-11T01:22:29.496Z,102396.59
2023-02-11T01:25:33.429Z,102388.72
2023-02-11T01:28:36.130Z,102373.75
2023-02-11T01:31:38.900Z,102376.44
2023-02-11T01:34:41.692Z,102370.28
2023-02-11T01:37:44.328Z,102375.59
2023-02-11T01:40:53.937Z,102370.28
2023-02-11T01:43:56.534Z,102369.44
2023-02-11T01:46:59.202Z,102352.72
2023-02-11T01:50:03.915Z,102348.34
2023-02-11T01:53:20.592Z,102351.00
2023-02-11T01:56:51.682Z,102344.84
2023-02-11T02:00:09.065Z,102343.97
2023-02-11T02:03:16.422Z,102340.44
2023-02-11T02:06:23.794Z,102337.78
2023-02-11T02:09:29.528Z,102341.34
2023-02-11T02:12:33.542Z,102343.06
2023-02-11T02:15:38.344Z,102335.16
2023-02-11T02:18:49.763Z,102333.44
2023-02-11T02:22:21.079Z,102337.84
2023-02-11T02:25:47.311Z,102338.69
2023-02-11T02:29:49.687Z,102348.34
2023-02-11T02:33:21.609Z,102336.94
2023-02-11T02:36:33.113Z,102337.84
2023-02-11T02:39:38.019Z,102339.59
2023-02-11T02:42:42.083Z,102335.22
2023-02-11T02:45:44.832Z,102322.03
2023-02-11T02:48:50.482Z,102320.25
2023-02-11T02:52:15.508Z,102322.03
2023-02-11T02:55:27.812Z,102329.94
2023-02-11T02:59:02.352Z,102336.97
2023-02-11T03:02:13.065Z,102335.22
2023-02-11T03:05:22.582Z,102325.53
2023-02-11T03:08:33.403Z,102331.72
2023-02-11T03:11:38.132Z,102322.00
2023-02-11T03:14:42.360Z,102313.25
2023-02-11T03:17:48.751Z,102317.63
2023-02-11T03:20:55.320Z,102308.84
2023-02-11T03:24:01.627Z,102319.41
2023-02-11T03:27:10.464Z,102319.38
2023-02-11T03:30:18.021Z,102312.38
2023-02-11T03:33:28.329Z,102306.19
2023-02-11T03:36:38.838Z,102315.88
2023-02-11T03:39:47.351Z,102309.72
2023-02-11T03:42:54.522Z,102300.03
2023-02-11T03:45:58.067Z,102293.88
2023-02-11T03:49:05.099Z,102293.88
2023-02-11T03:52:11.260Z,102287.75
2023-02-11T03:55:17.438Z,102293.03
2023-02-11T03:58:20.324Z,102294.78
2023-02-11T04:01:22.958Z,102280.69
2023-02-11T04:04:25.624Z,102270.16
2023-02-11T04:07:29.872Z,102267.53
2023-02-11T04:10:32.551Z,102272.75
2023-02-11T04:13:35.122Z,102276.31
2023-02-11T04:16:38.842Z,102280.69
2023-02-11T04:19:41.468Z,102291.22
2023-02-11T04:22:45.448Z,102275.41
2023-02-11T04:25:48.203Z,102293.84
2023-02-11T04:28:50.909Z,102304.38
2023-02-11T04:31:53.562Z,102294.72
2023-02-11T04:34:56.205Z,102294.75
2023-02-11T04:38:00.154Z,102288.56
2023-02-11T04:41:02.725Z,102292.97
2023-02-11T04:44:06.232Z,102299.13
2023-02-11T04:47:08.863Z,102305.22
2023-02-11T04:50:11.621Z,102307.88
2023-02-11T04:53:15.581Z,102301.72
2023-02-11T04:56:18.203Z,102317.53
2023-02-11T04:59:20.814Z,102315.81
2023-02-11T05:02:23.400Z,102306.94
2023-02-11T05:05:26.021Z,102306.09
2023-02-11T05:08:29.993Z,102306.09
2023-02-11T05:11:32.718Z,102299.97
2023-02-11T05:14:35.615Z,102307.91
2023-02-11T05:17:38.191Z,102313.13
2023-02-11T05:20:40.838Z,102306.09
2023-02-11T05:23:45.618Z,102303.50
2023-02-11T05:26:48.212Z,102292.91
2023-02-11T05:29:50.799Z,102295.59
2023-02-11T05:32:53.411Z,102291.16
2023-02-11T05:35:59.543Z,102287.63
2023-02-11T05:39:03.492Z,102286.78
2023-02-11T05:42:06.505Z,102284.16
2023-02-11T05:45:09.928Z,102275.38
2023-02-11T05:48:12.663Z,102270.97
2023-02-11T05:51:15.235Z,102270.06
2023-02-11T05:54:19.161Z,102263.06
2023-02-11T05:57:21.735Z,102240.16
2023-02-11T06:00:24.693Z,102252.47
2023-02-11T06:03:27.276Z,102248.06
2023-02-11T06:06:29.932Z,102255.06
2023-02-11T06:09:33.915Z,102262.97
2023-02-11T06:12:37.239Z,102245.38
2023-02-11T06:15:40.278Z,102260.31
2023-02-11T06:18:42.897Z,102258.59
2023-02-11T06:21:45.460Z,102261.22
2023-02-11T06:25:00.753Z,102253.28
2023-02-11T06:28:04.064Z,102246.25
2023-02-11T06:31:07.998Z,102238.31
2023-02-11T06:34:11.117Z,102251.56
2023-02-11T06:37:13.730Z,102251.53
2023-02-11T06:40:17.805Z,102251.53
2023-02-11T06:43:20.408Z,102259.47
2023-02-11T06:46:23.062Z,102278.81
2023-02-11T06:49:25.673Z,102284.06
2023-02-11T06:52:28.263Z,102290.25
2023-02-11T06:55:32.432Z,102291.13
2023-02-11T06:58:35.256Z,102300.81
2023-02-11T07:01:37.919Z,102301.66
2023-02-11T07:04:40.579Z,102309.56
2023-02-11T07:07:43.169Z,102304.31
2023-02-11T07:10:47.108Z,102297.28
2023-02-11T07:13:49.724Z,102307.75
2023-02-11T07:16:52.366Z,102320.16
2023-02-11T07:19:55.025Z,102317.47
2023-02-11T07:22:58.469Z,102319.25
2023-02-11T07:26:05.226Z,102321.03
2023-02-11T07:29:07.809Z,102309.63
2023-02-11T07:32:11.390Z,102307.81
2023-02-11T07:35:14.752Z,102304.25
2023-02-11T07:38:17.379Z,102313.09
2023-02-11T07:41:23.960Z,102314.91
2023-02-11T07:44:26.665Z,102318.38
2023-02-11T07:47:29.419Z,102322.81
2023-02-11T07:50:31.996Z,102332.47
2023-02-11T07:53:34.572Z,102340.38
2023-02-11T07:56:38.541Z,102342.97
2023-02-11T07:59:41.143Z,102355.31
2023-02-11T08:02:43.821Z,102357.97
2023-02-11T08:05:46.379Z,102355.34
2023-02-11T08:08:49.758Z,102356.19
2023-02-11T08:11:53.673Z,102347.31
2023-02-11T08:14:56.287Z,102342.94
2023-02-11T08:17:58.895Z,102357.03
2023-02-11T08:21:05.607Z,102355.28
2023-02-11T08:24:08.684Z,102366.69
2023-02-11T08:27:13.139Z,102366.66
2023-02-11T08:30:15.749Z,102373.75
2023-02-11T08:33:18.340Z,102379.88
2023-02-11T08:36:23.142Z,102372.81
2023-02-11T08:39:25.749Z,102386.88
2023-02-11T08:42:29.680Z,102389.56
2023-02-11T08:45:32.359Z,102401.00
2023-02-11T08:48:35.159Z,102403.66
2023-02-11T08:51:37.747Z,102399.25
2023-02-11T08:54:40.401Z,102403.66
2023-02-11T08:57:44.336Z,102397.50
2023-02-11T09:00:47.140Z,102401.88
2023-02-11T09:03:49.910Z,102400.16
2023-02-11T09:06:52.503Z,102398.41
2023-02-11T09:09:55.316Z,102407.16
2023-02-11T09:12:59.298Z,102402.75
2023-02-11T09:16:04.044Z,102413.34
2023-02-11T09:19:07.053Z,102407.16
2023-02-11T09:22:09.704Z,102432.69
2023-02-11T09:25:12.426Z,102425.59
2023-02-11T09:28:16.371Z,102442.38
2023-02-11T09:31:22.181Z,102444.13
2023-02-11T09:34:24.836Z,102437.06
2023-02-11T09:37:27.514Z,102446.78
2023-02-11T09:40:30.138Z,102444.16
2023-02-11T09:43:39.305Z,102438.88
2023-02-11T09:46:44.102Z,102438.84
2023-02-11T09:49:49.860Z,102439.72
2023-02-11T09:52:59.494Z,102442.38
2023-02-11T09:56:04.007Z,102455.53
2023-02-11T09:59:12.026Z,102439.69
2023-02-11T10:02:21.771Z,102443.22
2023-02-11T10:05:34.836Z,102435.25
2023-02-11T10:08:45.698Z,102441.47
2023-02-11T10:11:57.273Z,102443.19
2023-02-11T10:15:21.755Z,102442.31
2023-02-11T10:18:47.723Z,102452.91
2023-02-11T10:22:00.642Z,102454.66
2023-02-11T10:25:13.817Z,102468.72
2023-02-11T10:28:18.223Z,102466.97
2023-02-11T10:31:25.771Z,102457.28
2023-02-11T10:34:28.563Z,102453.75
2023-02-11T10:37:31.741Z,102446.72
2023-02-11T10:40:34.321Z,102450.25
2023-02-11T10:43:38.207Z,102452.03
2023-02-11T10:46:43.332Z,102452.91
2023-02-11T10:49:47.418Z,102445.81
2023-02-11T10:52:50.076Z,102452.88
2023-02-11T10:55:54.714Z,102444.06
2023-02-11T10:59:01.506Z,102442.34
2023-02-11T11:02:17.756Z,102451.13
2023-02-11T11:05:31.209Z,102445.84
2023-02-11T11:08:44.554Z,102448.44
2023-02-11T11:11:53.556Z,102466.03
2023-02-11T11:14:57.059Z,102447.47
2023-02-11T11:18:22.025Z,102456.38
2023-02-11T11:21:27.072Z,102447.59
2023-02-11T11:24:31.668Z,102451.97
2023-02-11T11:27:34.529Z,102455.47
2023-02-11T11:30:43.732Z,102466.91
2023-02-11T11:33:49.215Z,102467.75
2023-02-11T11:36:51.943Z,102484.44
2023-02-11T11:40:00.017Z,102475.69
2023-02-11T11:43:16.173Z,102485.34
2023-02-11T11:46:25.031Z,102483.59
2023-02-11T11:49:33.812Z,102486.25
2023-02-11T11:52:41.448Z,102494.16
2023-02-11T11:55:47.410Z,102497.63
2023-02-11T11:58:50.854Z,102495.88
2023-02-11T12:02:19.306Z,102496.78
2023-02-11T12:05:27.894Z,102493.28
2023-02-11T12:08:41.477Z,102492.31
2023-02-11T12:12:02.919Z,102496.78
2023-02-11T12:15:21.478Z,102486.19
2023-02-11T12:19:21.626Z,102507.31
2023-02-11T12:22:41.725Z,102505.56
2023-02-11T12:25:53.204Z,102517.03
2023-02-11T12:29:07.743Z,102507.41
2023-02-11T12:32:18.588Z,102500.34
2023-02-11T12:35:29.425Z,102483.56
2023-02-11T12:39:00.124Z,102491.53
2023-02-11T12:42:47.498Z,102492.41
2023-02-11T12:46:01.636Z,102491.53
2023-02-11T12:49:33.733Z,102498.59
2023-02-11T12:52:54.048Z,102488.91
2023-02-11T12:56:03.526Z,102486.22
2023-02-11T12:59:14.363Z,102482.72
2023-02-11T13:02:25.598Z,102468.59
2023-02-11T13:05:33.045Z,102463.28
2023-02-11T13:08:39.924Z,102459.72
2023-02-11T13:11:51.718Z,102466.84
2023-02-11T13:15:00.211Z,102472.09
2023-02-11T13:18:14.285Z,102482.72
2023-02-11T13:21:34.884Z,102483.56
2023-02-11T13:24:45.164Z,102480.91
2023-02-11T13:27:58.946Z,102477.31
2023-02-11T13:31:03.514Z,102472.00
2023-02-11T13:34:24.695Z,102489.66
2023-02-11T13:37:33.093Z,102481.72
2023-02-11T13:40:37.573Z,102482.66
2023-02-11T13:43:41.844Z,102488.88
2023-02-11T13:46:58.163Z,102484.41
2023-02-11T13:50:03.006Z,102495.91
2023-02-11T13:53:08.647Z,102502.13
2023-02-11T13:56:31.483Z,102506.50
2023-02-11T13:59:48.774Z,102512.69
2023-02-11T14:03:42.570Z,102520.56
2023-02-11T14:07:40.392Z,102515.31
2023-02-11T14:10:55.368Z,102516.19
2023-02-11T14:14:16.178Z,102516.19
2023-02-11T14:17:31.893Z,102520.56
2023-02-11T14:20:39.122Z,102537.31
2023-02-11T14:23:42.598Z,102546.16
2023-02-11T14:26:50.362Z,102549.69
2023-02-11T14:30:25.270Z,102554.09
2023-02-11T14:34:09.136Z,102569.94
2023-02-11T14:37:24.664Z,102561.19
2023-02-11T14:40:31.793Z,102568.19
2023-02-11T14:43:39.542Z,102571.69
2023-02-11T14:46:46.205Z,102577.94
2023-02-11T14:49:50.456Z,102574.41
2023-02-11T14:52:55.588Z,102575.28
2023-02-11T14:55:58.295Z,102593.78
2023-02-11T14:59:02.539Z,102607.00
2023-02-11T15:02:24.143Z,102599.00
2023-02-11T15:05:29.723Z,102606.06
2023-02-11T15:08:37.084Z,102612.19
2023-02-11T15:11:41.228Z,102607.75
2023-02-11T15:14:47.791Z,102615.72
2023-02-11T15:17:50.744Z,102632.44
2023-02-11T15:20:53.787Z,102627.06
2023-02-11T15:24:00.130Z,102620.00
2023-02-11T15:27:04.929Z,102631.50
2023-02-11T15:30:25.237Z,102631.53
2023-02-11T15:33:30.122Z,102638.69
2023-02-11T15:36:36.111Z,102645.72
2023-02-11T15:39:41.974Z,102635.13
2023-02-11T15:42:58.329Z,102642.19
2023-02-11T15:46:02.572Z,102639.59
2023-02-11T15:49:06.460Z,102655.47
2023-02-11T15:52:09.296Z,102644.91
2023-02-11T15:55:16.859Z,102648.41
2023-02-11T15:58:20.321Z,102655.44
2023-02-11T16:01:33.503Z,102654.56
2023-02-11T16:04:38.300Z,102667.78
2023-02-11T16:07:46.359Z,102670.47
2023-02-11T16:10:58.659Z,102679.28
2023-02-11T16:14:04.131Z,102674.00
2023-02-11T16:17:12.035Z,102678.34
2023-02-11T16:20:19.850Z,102678.38
2023-02-11T16:23:26.466Z,102674.91
2023-02-11T16:26:35.549Z,102683.75
2023-02-11T16:29:38.444Z,102694.31
2023-02-11T16:32:41.360Z,102696.97
2023-02-11T16:35:47.457Z,102705.75
2023-02-11T16:38:50.058Z,102706.66
2023-02-11T16:41:54.008Z,102725.16
2023-02-11T16:44:56.648Z,102714.56
2023-02-11T16:48:00.023Z,102726.03
2023-02-11T16:51:02.646Z,102727.81
2023-02-11T16:54:05.707Z,102733.97
2023-02-11T16:57:15.351Z,102752.50
2023-02-11T17:00:19.149Z,102753.34
2023-02-11T17:03:24.592Z,102757.78
2023-02-11T17:06:28.628Z,102756.00
2023-02-11T17:09:31.436Z,102768.34
2023-02-11T17:12:35.347Z,102780.69
2023-02-11T17:15:37.960Z,102773.66
2023-02-11T17:18:40.574Z,102765.72
2023-02-11T17:21:43.747Z,102767.44
2023-02-11T17:24:46.552Z,102776.25
2023-02-11T17:27:52.781Z,102771.84
2023-02-11T17:30:55.781Z,102773.66
2023-02-11T17:33:58.354Z,102769.22
2023-02-11T17:37:03.039Z,102789.50
2023-02-11T17:40:06.754Z,102794.78
2023-02-11T17:43:10.804Z,102798.28
2023-02-11T17:46:14.159Z,102794.75
2023-02-11T17:49:16.855Z,102789.50
2023-02-11T17:52:20.806Z,102781.56
2023-02-11T17:55:23.409Z,102792.16
2023-02-11T17:58:27.365Z,102788.66
2023-02-11T18:01:30.586Z,102795.69
2023-02-11T18:04:33.517Z,102803.59
2023-02-11T18:07:36.118Z,102801.84
2023-02-11T18:10:42.198Z,102817.69
2023-02-11T18:13:51.335Z,102823.00
2023-02-11T18:16:54.081Z,102816.81
2023-02-11T18:19:58.030Z,102819.47
2023-02-11T18:23:00.645Z,102826.50
2023-02-11T18:26:03.744Z,102852.03
2023-02-11T18:29:07.842Z,102847.59
2023-02-11T18:32:10.535Z,102852.91
2023-02-11T18:35:15.125Z,102853.84
2023-02-11T18:38:18.532Z,102849.44
2023-02-11T18:41:21.676Z,102856.47
2023-02-11T18:44:25.628Z,102868.81
2023-02-11T18:47:29.056Z,102870.59
2023-02-11T18:50:31.790Z,102863.53
2023-02-11T18:53:34.394Z,102879.41
2023-02-11T18:56:37.036Z,102868.81
2023-02-11T18:59:40.980Z,102860.00
2023-02-11T19:02:43.596Z,102860.91
2023-02-11T19:05:48.622Z,102872.38
2023-02-11T19:08:51.735Z,102865.31
2023-02-11T19:11:55.328Z,102871.50
2023-02-11T19:15:00.534Z,102879.41
2023-02-11T19:18:03.187Z,102895.28
2023-02-11T19:21:10.377Z,102878.63
2023-02-11T19:24:15.414Z,102885.66
2023-02-11T19:27:18.007Z,102867.06
2023-02-11T19:30:22.266Z,102880.28
2023-02-11T19:33:24.855Z,102877.63
2023-02-11T19:36:28.087Z,102887.34
2023-02-11T19:39:31.295Z,102882.94
2023-02-11T19:42:33.883Z,102886.53
2023-02-11T19:45:39.289Z,102890.00
2023-02-11T19:48:41.936Z,102897.06
2023-02-11T19:51:44.751Z,102895.28
2023-02-11T19:54:47.360Z,102895.25
2023-02-11T19:57:49.959Z,102891.72
2023-02-11T20:00:54.096Z,102886.47
2023-02-11T20:03:57.778Z,102900.56
2023-02-11T20:07:00.432Z,102898.84
2023-02-11T20:10:03.230Z,102904.19
2023-02-11T20:13:06.012Z,102903.31
2023-02-11T20:16:12.290Z,102893.56
2023-02-11T20:19:17.671Z,102889.19
2023-02-11T20:22:20.500Z,102895.34
2023-02-11T20:25:23.084Z,102908.56
2023-02-11T20:28:25.765Z,102922.69
2023-02-11T20:31:31.984Z,102919.19
2023-02-11T20:34:35.213Z,102924.47
2023-02-11T20:37:38.621Z,102930.69
2023-02-11T20:40:41.241Z,102935.09
2023-02-11T20:43:45.843Z,102934.22
2023-02-11T20:46:49.862Z,102928.03
2023-02-11T20:49:55.153Z,102920.97
2023-02-11T20:52:58.037Z,102922.75
2023-02-11T20:56:02.585Z,102920.09
2023-02-11T20:59:06.110Z,102920.91
2023-02-11T21:02:12.316Z,102928.91
2023-02-11T21:05:14.939Z,102932.41
2023-02-11T21:08:17.501Z,102926.28
2023-02-11T21:11:20.556Z,102927.09
2023-02-11T21:14:25.405Z,102928.84
2023-02-11T21:17:29.733Z,102937.59
2023-02-11T21:20:32.336Z,102939.34
2023-02-11T21:23:35.726Z,102952.59
2023-02-11T21:26:39.036Z,102956.97
2023-02-11T21:29:53.419Z,102965.81
2023-02-11T21:32:58.829Z,102966.66
2023-02-11T21:36:03.142Z,102984.41
2023-02-11T21:39:05.962Z,102992.34
2023-02-11T21:42:08.623Z,102992.41
2023-02-11T21:45:11.391Z,102990.59
2023-02-11T21:48:15.836Z,102989.69
2023-02-11T21:51:20.426Z,102994.16
2023-02-11T21:54:25.691Z,103002.03
2023-02-11T21:57:28.491Z,103003.75
2023-02-11T22:00:31.591Z,103004.69
2023-02-11T22:03:35.554Z,103004.69
2023-02-11T22:06:38.225Z,103008.22
2023-02-11T22:09:41.051Z,103013.44
2023-02-11T22:12:43.611Z,103029.38
2023-02-11T22:15:46.188Z,103021.31
2023-02-11T22:18:50.216Z,103022.34
2023-02-11T22:21:52.834Z,103024.16
2023-02-11T22:24:55.623Z,103024.16
2023-02-11T22:27:58.208Z,103032.97
2023-02-11T22:31:01.257Z,103031.19
2023-02-11T22:34:06.007Z,103040.78
2023-02-11T22:37:08.588Z,103039.97
2023-02-11T22:40:12.262Z,103047.06
2023-02-11T22:43:14.897Z,103054.13
2023-02-11T22:46:19.901Z,103047.94
2023-02-11T22:49:23.916Z,103056.78
2023-02-11T22:52:28.263Z,103060.28
2023-02-11T22:55:30.888Z,103068.25
2023-02-11T22:58:33.866Z,103073.47
2023-02-11T23:01:36.752Z,103086.59
2023-02-11T23:04:40.715Z,103078.66
2023-02-11T23:07:43.330Z,103088.25
2023-02-11T23:10:45.993Z,103087.34
2023-02-11T23:13:49.695Z,103089.09
2023-02-11T23:16:52.333Z,103083.94
2023-02-11T23:19:56.492Z,103090.81
2023-02-11T23:22:59.089Z,103095.22
2023-02-11T23:26:02.303Z,103102.28
2023-02-11T23:29:04.888Z,103109.44
2023-02-11T23:32:07.557Z,103111.97
2023-02-11T23:35:11.635Z,103116.47
2023-02-11T23:38:14.356Z,103104.16
2023-02-11T23:41:17.327Z,103110.31
2023-02-11T23:44:19.899Z,103105.84
2023-02-11T23:47:22.460Z,103111.16
2023-02-11T23:50:26.426Z,103111.78
2023-02-11T23:53:29.067Z,103114.50
2023-02-11T23:56:31.706Z,103123.31
2023-02-11T23:59:34.316Z,103123.38
